Time;durP1;ratioP1;P1;durP2;ratioP2;P2;SDS_P1;SDS_P2;PMS_P1;PMS_P2;Temp;Humidity;BMP_temperature;BMP_pressure;BME280_temperature;BME280_humidity;BME280_pressure;Samples;Min_cycle;Max_cycle;Signal;HPM_P1;HPM_P2
2021/01/11 00:01:39;;;;;;;42.90;38.28;;;;;;;;;;5096351;28;20199;-85
2021/01/11 00:04:05;;;;;;;40.78;36.38;;;;;;;;;;5096581;28;20251;-85
2021/01/11 00:06:36;;;;;;;42.35;38.05;;;;;;;;;;5096487;28;20187;-86
2021/01/11 00:09:03;;;;;;;44.83;40.03;;;;;;;;;;5096250;28;20183;-86
2021/01/11 00:11:32;;;;;;;42.58;38.13;;;;;;;;;;5096411;28;20198;-85
2021/01/11 00:13:59;;;;;;;40.78;36.63;;;;;;;;;;5095594;28;20183;-86
2021/01/11 00:16:26;;;;;;;41.00;36.45;;;;;;;;;;5078218;28;20209;-85
2021/01/11 00:18:53;;;;;;;40.47;36.45;;;;;;;;;;5096501;28;20533;-85
2021/01/11 00:21:21;;;;;;;40.83;37.00;;;;;;;;;;5078171;28;20277;-85
2021/01/11 00:23:48;;;;;;;41.33;37.20;;;;;;;;;;5095885;28;20225;-85
2021/01/11 00:26:15;;;;;;;41.28;36.30;;;;;;;;;;5096102;28;20550;-86
2021/01/11 00:28:42;;;;;;;40.42;36.20;;;;;;;;;;5095881;28;20191;-85
2021/01/11 00:31:10;;;;;;;43.30;36.80;;;;;;;;;;5096067;28;20226;-85
2021/01/11 00:33:37;;;;;;;39.08;35.30;;;;;;;;;;5096078;28;20199;-85
2021/01/11 00:36:05;;;;;;;41.10;36.70;;;;;;;;;;5077962;28;20207;-85
2021/01/11 00:38:32;;;;;;;39.75;35.78;;;;;;;;;;5096036;28;20233;-85
2021/01/11 00:40:59;;;;;;;40.45;36.42;;;;;;;;;;5094960;28;20317;-85
2021/01/11 00:43:26;;;;;;;42.63;38.15;;;;;;;;;;5095968;28;20187;-85
2021/01/11 00:45:52;;;;;;;41.22;36.90;;;;;;;;;;5095628;28;20293;-85
2021/01/11 00:48:19;;;;;;;38.97;34.88;;;;;;;;;;5095739;28;20555;-86
2021/01/11 00:50:46;;;;;;;42.67;38.47;;;;;;;;;;5095737;28;20213;-85
2021/01/11 00:53:14;;;;;;;40.13;36.05;;;;;;;;;;5095399;28;20195;-85
2021/01/11 00:55:41;;;;;;;37.60;34.05;;;;;;;;;;5095590;28;20542;-86
2021/01/11 00:58:08;;;;;;;42.10;37.72;;;;;;;;;;5095564;28;20191;-85
2021/01/11 01:00:35;;;;;;;40.00;35.83;;;;;;;;;;5095465;28;20195;-86
2021/01/11 01:03:01;;;;;;;41.08;36.83;;;;;;;;;;5095518;28;20194;-85
2021/01/11 01:05:28;;;;;;;42.33;37.95;;;;;;;;;;5095539;28;20207;-85
2021/01/11 01:07:55;;;;;;;40.05;36.03;;;;;;;;;;5095586;28;20191;-85
2021/01/11 01:10:23;;;;;;;41.70;37.60;;;;;;;;;;5095280;28;20191;-85
2021/01/11 01:12:50;;;;;;;37.97;34.25;;;;;;;;;;5095271;28;20191;-85
2021/01/11 01:15:17;;;;;;;37.97;34.28;;;;;;;;;;5094956;28;20236;-85
2021/01/11 01:17:44;;;;;;;40.42;36.28;;;;;;;;;;5095131;28;20219;-86
2021/01/11 01:20:15;;;;;;;41.40;36.92;;;;;;;;;;5094567;28;20236;-85
2021/01/11 01:22:44;;;;;;;40.22;35.90;;;;;;;;;;5077737;28;20194;-85
2021/01/11 01:25:11;;;;;;;38.22;34.58;;;;;;;;;;5094918;28;20223;-85
2021/01/11 01:27:39;;;;;;;41.30;36.90;;;;;;;;;;5094846;28;20187;-85
2021/01/11 01:30:07;;;;;;;45.92;37.08;;;;;;;;;;5076873;28;20306;-85
2021/01/11 01:32:34;;;;;;;38.53;34.50;;;;;;;;;;5094480;28;20256;-85
2021/01/11 01:35:01;;;;;;;41.60;35.53;;;;;;;;;;5094833;28;20283;-85
2021/01/11 01:37:28;;;;;;;40.25;35.92;;;;;;;;;;5095153;28;20565;-85
2021/01/11 01:39:55;;;;;;;35.95;32.13;;;;;;;;;;5094288;28;20276;-85
2021/01/11 01:42:22;;;;;;;39.45;35.17;;;;;;;;;;5095457;28;20183;-85
2021/01/11 01:44:49;;;;;;;40.75;36.45;;;;;;;;;;5094743;28;20794;-85
2021/01/11 01:47:16;;;;;;;41.50;37.25;;;;;;;;;;5094384;28;20711;-85
2021/01/11 01:49:44;;;;;;;43.22;38.67;;;;;;;;;;5094736;28;20187;-85
2021/01/11 01:52:11;;;;;;;39.03;34.80;;;;;;;;;;5094729;28;20194;-85
2021/01/11 01:54:40;;;;;;;39.85;35.88;;;;;;;;;;5094542;28;20649;-85
2021/01/11 01:57:08;;;;;;;38.47;34.05;;;;;;;;;;5094780;28;20192;-85
2021/01/11 01:59:35;;;;;;;39.60;35.50;;;;;;;;;;5077031;28;20256;-84
2021/01/11 02:02:04;;;;;;;41.05;36.85;;;;;;;;;;5094838;28;20187;-85
2021/01/11 02:04:31;;;;;;;42.47;35.60;;;;;;;;;;5094532;28;20252;-85
2021/01/11 02:07:01;;;;;;;40.58;36.35;;;;;;;;;;5094373;28;20193;-85
2021/01/11 02:09:34;;;;;;;40.10;35.83;;;;;;;;;;5076621;28;20301;-85
2021/01/11 02:12:06;;;;;;;42.72;37.88;;;;;;;;;;5094620;28;20195;-85
2021/01/11 02:14:39;;;;;;;45.28;38.95;;;;;;;;;;5094612;28;20195;-85
2021/01/11 02:17:09;;;;;;;37.45;33.63;;;;;;;;;;5094501;28;20187;-85
2021/01/11 02:19:49;;;;;;;40.55;36.13;;;;;;;;;;5094066;28;20184;-85
2021/01/11 02:22:21;;;;;;;41.65;37.40;;;;;;;;;;5076626;28;20203;-86
2021/01/11 02:25:05;;;;;;;41.45;35.50;;;;;;;;;;5094315;28;20215;-85
2021/01/11 02:27:37;;;;;;;37.00;33.15;;;;;;;;;;5094568;28;20542;-85
2021/01/11 02:30:10;;;;;;;40.10;35.55;;;;;;;;;;5094062;28;20222;-85
2021/01/11 02:32:38;;;;;;;41.65;37.28;;;;;;;;;;5094073;28;20194;-85
2021/01/11 02:35:07;;;;;;;38.47;34.78;;;;;;;;;;5094112;28;20188;-85
2021/01/11 02:37:34;;;;;;;39.47;35.47;;;;;;;;;;5095724;28;20676;-85
2021/01/11 02:40:01;;;;;;;41.90;37.05;;;;;;;;;;5097945;28;20238;-85
2021/01/11 02:42:29;;;;;;;42.17;37.88;;;;;;;;;;5098350;28;20182;-85
2021/01/11 02:44:56;;;;;;;40.90;36.80;;;;;;;;;;5097849;28;20222;-85
2021/01/11 02:47:26;;;;;;;43.95;39.30;;;;;;;;;;5098270;28;20210;-85
2021/01/11 02:49:55;;;;;;;39.45;35.45;;;;;;;;;;5080552;28;20191;-85
2021/01/11 02:52:25;;;;;;;38.58;34.67;;;;;;;;;;5097887;28;20190;-85
2021/01/11 02:54:53;;;;;;;41.30;36.92;;;;;;;;;;5098113;28;20236;-85
2021/01/11 02:57:23;;;;;;;41.50;37.05;;;;;;;;;;5080268;28;20240;-85
2021/01/11 02:59:52;;;;;;;41.15;37.00;;;;;;;;;;5079994;28;20532;-85
2021/01/11 03:02:20;;;;;;;39.10;35.38;;;;;;;;;;5097667;28;20195;-85
2021/01/11 03:04:48;;;;;;;38.63;34.92;;;;;;;;;;5097731;28;20215;-85
2021/01/11 03:07:15;;;;;;;40.28;35.95;;;;;;;;;;5097773;28;20515;-85
2021/01/11 03:09:42;;;;;;;35.15;31.80;;;;;;;;;;5097776;28;20186;-85
2021/01/11 03:12:09;;;;;;;40.47;36.22;;;;;;;;;;5097518;28;20245;-85
2021/01/11 03:14:36;;;;;;;38.67;34.75;;;;;;;;;;5097857;28;20195;-85
2021/01/11 03:17:03;;;;;;;38.15;34.20;;;;;;;;;;5097481;28;20278;-86
2021/01/11 03:19:30;;;;;;;41.17;36.78;;;;;;;;;;5097040;28;20194;-85
2021/01/11 03:21:58;;;;;;;34.53;31.27;;;;;;;;;;5097473;28;20183;-85
2021/01/11 03:24:25;;;;;;;40.15;36.08;;;;;;;;;;5097214;28;20207;-85
2021/01/11 03:26:52;;;;;;;37.72;34.13;;;;;;;;;;5097476;28;20211;-85
2021/01/11 03:29:20;;;;;;;40.28;36.15;;;;;;;;;;5096732;28;20260;-85
2021/01/11 03:31:47;;;;;;;40.22;36.00;;;;;;;;;;5097346;28;20242;-85
2021/01/11 03:34:14;;;;;;;40.95;36.55;;;;;;;;;;5079238;28;20233;-85
2021/01/11 03:36:42;;;;;;;37.00;33.53;;;;;;;;;;5096853;28;20646;-85
2021/01/11 03:39:10;;;;;;;43.65;37.80;;;;;;;;;;5096927;28;20198;-85
2021/01/11 03:41:38;;;;;;;37.22;33.78;;;;;;;;;;5096272;28;20362;-85
2021/01/11 03:44:05;;;;;;;41.92;37.53;;;;;;;;;;5078953;28;20563;-85
2021/01/11 03:46:32;;;;;;;40.20;36.05;;;;;;;;;;5096918;28;20244;-85
2021/01/11 03:48:59;;;;;;;43.95;37.50;;;;;;;;;;5095452;28;20670;-84
2021/01/11 03:51:26;;;;;;;40.83;36.88;;;;;;;;;;5096524;28;20556;-85
2021/01/11 03:53:53;;;;;;;37.85;34.35;;;;;;;;;;5096963;28;20183;-85
2021/01/11 03:56:21;;;;;;;43.63;38.78;;;;;;;;;;5096791;28;20191;-84
2021/01/11 03:58:48;;;;;;;44.30;39.70;;;;;;;;;;5078866;28;20228;-85
2021/01/11 04:01:15;;;;;;;43.63;39.05;;;;;;;;;;5096432;28;20660;-85
2021/01/11 04:03:42;;;;;;;40.33;36.20;;;;;;;;;;5096804;28;20248;-86
2021/01/11 04:06:09;;;;;;;42.35;36.58;;;;;;;;;;5096516;28;20264;-85
2021/01/11 04:08:36;;;;;;;43.72;39.25;;;;;;;;;;5096507;28;20187;-85
2021/01/11 04:11:03;;;;;;;32.65;29.85;;;;;;;;;;5096534;28;20183;-85
2021/01/11 04:13:31;;;;;;;44.40;38.83;;;;;;;;;;5096501;28;20233;-85
2021/01/11 04:15:58;;;;;;;36.78;32.97;;;;;;;;;;5096082;28;20649;-85
2021/01/11 04:18:25;;;;;;;38.22;34.42;;;;;;;;;;5096068;28;20187;-85
2021/01/11 04:20:52;;;;;;;39.50;35.80;;;;;;;;;;5095992;28;20183;-85
2021/01/11 04:23:19;;;;;;;43.10;38.45;;;;;;;;;;5078212;28;20671;-85
2021/01/11 04:25:46;;;;;;;39.10;34.85;;;;;;;;;;5095673;28;20218;-85
2021/01/11 04:28:13;;;;;;;43.72;39.30;;;;;;;;;;5078462;28;20189;-85
2021/01/11 04:30:41;;;;;;;40.70;36.42;;;;;;;;;;5096105;28;20222;-85
2021/01/11 04:33:08;;;;;;;42.38;37.88;;;;;;;;;;5095809;28;20223;-85
2021/01/11 04:35:35;;;;;;;44.63;39.83;;;;;;;;;;5095615;28;20191;-85
2021/01/11 04:38:02;;;;;;;42.78;37.33;;;;;;;;;;5078155;28;20589;-85
2021/01/11 04:40:29;;;;;;;46.67;41.10;;;;;;;;;;5095518;28;20725;-85
2021/01/11 04:42:57;;;;;;;41.97;37.85;;;;;;;;;;5095892;28;20214;-84
2021/01/11 04:45:25;;;;;;;33.90;30.63;;;;;;;;;;5095634;28;20223;-84
2021/01/11 04:47:53;;;;;;;40.80;36.33;;;;;;;;;;5095522;28;20187;-84
2021/01/11 04:50:20;;;;;;;44.00;39.20;;;;;;;;;;5095261;28;20191;-84
2021/01/11 04:52:48;;;;;;;33.83;30.80;;;;;;;;;;5095540;28;20187;-84
2021/01/11 04:55:16;;;;;;;37.33;33.38;;;;;;;;;;5095430;28;20192;-84
2021/01/11 04:57:51;;;;;;;40.67;35.85;;;;;;;;;;5077686;28;20559;-84
2021/01/11 05:00:20;;;;;;;44.22;39.47;;;;;;;;;;5095075;28;20549;-84
2021/01/11 05:02:47;;;;;;;41.33;37.08;;;;;;;;;;5095669;28;20191;-85
2021/01/11 05:05:15;;;;;;;38.83;34.33;;;;;;;;;;5095025;28;20226;-84
2021/01/11 05:07:42;;;;;;;44.90;40.13;;;;;;;;;;5095038;28;20198;-84
2021/01/11 05:10:09;;;;;;;40.15;35.15;;;;;;;;;;5095287;28;20190;-84
2021/01/11 05:12:36;;;;;;;44.33;39.53;;;;;;;;;;5095232;28;20194;-84
2021/01/11 05:15:16;;;;;;;46.10;37.63;;;;;;;;;;5095031;28;20186;-84
2021/01/11 05:17:43;;;;;;;39.75;35.75;;;;;;;;;;5095270;28;20214;-84
2021/01/11 05:20:11;;;;;;;35.63;31.83;;;;;;;;;;5095016;28;20644;-85
2021/01/11 05:22:39;;;;;;;45.90;41.00;;;;;;;;;;5077383;28;20186;-84
2021/01/11 05:25:15;;;;;;;42.70;38.50;;;;;;;;;;5077145;28;20226;-84
2021/01/11 05:27:43;;;;;;;49.10;43.17;;;;;;;;;;5095094;28;20186;-83
2021/01/11 05:30:11;;;;;;;48.60;41.97;;;;;;;;;;5095686;28;20215;-84
2021/01/11 05:32:38;;;;;;;49.10;42.05;;;;;;;;;;5095267;28;20192;-84
2021/01/11 05:35:05;;;;;;;44.63;40.13;;;;;;;;;;5094626;28;20240;-84
2021/01/11 05:37:37;;;;;;;49.47;42.67;;;;;;;;;;5095132;28;20195;-84
2021/01/11 05:40:10;;;;;;;42.67;38.45;;;;;;;;;;5094411;28;20226;-84
2021/01/11 05:42:38;;;;;;;48.20;42.95;;;;;;;;;;5094831;28;20278;-84
2021/01/11 05:45:13;;;;;;;42.08;37.58;;;;;;;;;;5094877;28;20212;-84
2021/01/11 05:47:58;;;;;;;47.25;41.80;;;;;;;;;;5094759;28;20190;-84
2021/01/11 05:50:26;;;;;;;43.50;38.78;;;;;;;;;;5094693;28;20201;-84
2021/01/11 05:52:53;;;;;;;46.38;41.45;;;;;;;;;;5094461;28;20191;-84
2021/01/11 05:55:21;;;;;;;42.20;37.88;;;;;;;;;;5094470;28;20227;-84
2021/01/11 05:57:56;;;;;;;43.38;39.15;;;;;;;;;;5094764;28;20191;-84
2021/01/11 06:00:23;;;;;;;43.22;38.42;;;;;;;;;;5077005;28;20197;-84
2021/01/11 06:02:50;;;;;;;45.63;40.70;;;;;;;;;;5094618;28;20191;-85
2021/01/11 06:05:18;;;;;;;48.67;42.42;;;;;;;;;;5093997;28;20272;-84
2021/01/11 06:07:45;;;;;;;39.97;35.97;;;;;;;;;;5094480;28;20191;-84
2021/01/11 06:10:13;;;;;;;40.30;36.13;;;;;;;;;;5094694;28;20189;-84
2021/01/11 06:12:42;;;;;;;46.25;41.35;;;;;;;;;;5096277;28;20197;-84
2021/01/11 06:15:10;;;;;;;40.80;36.47;;;;;;;;;;5098849;28;20187;-84
2021/01/11 06:17:37;;;;;;;41.70;37.00;;;;;;;;;;5098331;28;20689;-84
2021/01/11 06:20:05;;;;;;;48.97;42.22;;;;;;;;;;5098624;28;20195;-84
2021/01/11 06:22:55;;;;;;;50.35;44.20;;;;;;;;;;5098548;28;20217;-84
2021/01/11 06:25:38;;;;;;;49.63;44.28;;;;;;;;;;5078366;28;20225;-84
2021/01/11 06:28:06;;;;;;;54.28;47.30;;;;;;;;;;5080092;28;20202;-84
2021/01/11 06:30:34;;;;;;;54.70;43.85;;;;;;;;;;5098434;28;20223;-84
2021/01/11 06:33:05;;;;;;;43.97;38.80;;;;;;;;;;5098406;28;20620;-84
2021/01/11 06:35:32;;;;;;;38.83;34.60;;;;;;;;;;5080267;28;20594;-84
2021/01/11 06:38:09;;;;;;;40.10;35.95;;;;;;;;;;5098273;28;20194;-84
2021/01/11 06:40:36;;;;;;;48.35;37.10;;;;;;;;;;5097932;28;20234;-84
2021/01/11 06:43:03;;;;;;;51.30;45.65;;;;;;;;;;5098277;28;20542;-84
2021/01/11 06:45:41;;;;;;;51.17;42.67;;;;;;;;;;5097727;28;20218;-84
2021/01/11 06:48:08;;;;;;;45.58;40.63;;;;;;;;;;5097954;28;20724;-84
2021/01/11 06:50:36;;;;;;;51.67;44.20;;;;;;;;;;5098093;28;20186;-85
2021/01/11 06:53:03;;;;;;;48.88;40.03;;;;;;;;;;5079995;28;20618;-85
2021/01/11 06:55:30;;;;;;;39.63;34.78;;;;;;;;;;5098232;28;20527;-84
2021/01/11 06:57:58;;;;;;;44.83;40.22;;;;;;;;;;5098283;28;20194;-84
2021/01/11 07:00:32;;;;;;;42.60;38.10;;;;;;;;;;5097679;28;20191;-84
2021/01/11 07:03:00;;;;;;;43.78;37.92;;;;;;;;;;5097589;28;20182;-85
2021/01/11 07:05:42;;;;;;;44.70;38.15;;;;;;;;;;5079565;28;20226;-84
2021/01/11 07:08:12;;;;;;;42.25;37.40;;;;;;;;;;5097495;28;20274;-84
2021/01/11 07:10:40;;;;;;;36.85;33.13;;;;;;;;;;5097421;28;20272;-84
2021/01/11 07:13:28;;;;;;;33.95;30.65;;;;;;;;;;5079662;28;20202;-85
2021/01/11 07:16:17;;;;;;;38.08;34.33;;;;;;;;;;5079479;28;20199;-84
2021/01/11 07:18:48;;;;;;;42.90;38.58;;;;;;;;;;5097250;28;20187;-83
2021/01/11 07:21:16;;;;;;;34.67;31.55;;;;;;;;;;5097588;28;20576;-84
2021/01/11 07:23:43;;;;;;;38.50;34.78;;;;;;;;;;5079582;28;20546;-84
2021/01/11 07:26:19;;;;;;;44.38;39.88;;;;;;;;;;5097517;28;20211;-93
2021/01/11 07:29:00;;;;;;;46.45;41.75;;;;;;;;;;5078846;28;20202;-84
2021/01/11 07:31:28;;;;;;;47.35;41.05;;;;;;;;;;5096685;28;20218;-83
2021/01/11 07:33:58;;;;;;;42.13;37.65;;;;;;;;;;5096823;28;20191;-83
2021/01/11 07:36:25;;;;;;;47.28;40.30;;;;;;;;;;5097040;28;20592;-84
2021/01/11 07:39:06;;;;;;;45.03;40.47;;;;;;;;;;5096681;28;20195;-84
2021/01/11 07:41:33;;;;;;;41.25;37.10;;;;;;;;;;5096918;28;20297;-83
2021/01/11 07:44:11;;;;;;;45.10;40.40;;;;;;;;;;5097801;28;20191;-83
2021/01/11 07:46:38;;;;;;;40.60;36.45;;;;;;;;;;5096974;28;20195;-84
2021/01/11 07:49:12;;;;;;;43.25;38.78;;;;;;;;;;5096952;28;20194;-83
2021/01/11 07:51:39;;;;;;;41.60;37.50;;;;;;;;;;5096672;28;20194;-84
2021/01/11 07:54:10;;;;;;;41.92;37.65;;;;;;;;;;5096593;28;20191;-83
2021/01/11 07:56:37;;;;;;;43.53;38.88;;;;;;;;;;5096599;28;20191;-84
2021/01/11 07:59:07;;;;;;;48.88;41.67;;;;;;;;;;5096350;28;20190;-83
2021/01/11 08:01:35;;;;;;;48.78;43.47;;;;;;;;;;5096539;28;20187;-84
2021/01/11 08:04:02;;;;;;;45.65;40.47;;;;;;;;;;5078514;28;20701;-83
2021/01/11 08:06:30;;;;;;;45.70;40.97;;;;;;;;;;5096195;28;20207;-84
2021/01/11 08:08:58;;;;;;;46.80;41.70;;;;;;;;;;5096624;28;20187;-83
2021/01/11 08:11:25;;;;;;;47.53;42.47;;;;;;;;;;5096501;28;20198;-83
2021/01/11 08:13:52;;;;;;;39.53;35.58;;;;;;;;;;5096357;28;20209;-84
2021/01/11 08:16:19;;;;;;;45.65;40.58;;;;;;;;;;5094975;28;20191;-84
2021/01/11 08:18:46;;;;;;;36.60;33.03;;;;;;;;;;5095899;28;20191;-86
2021/01/11 08:21:15;;;;;;;30.58;28.02;;;;;;;;;;5095955;28;20640;-85
2021/01/11 08:23:43;;;;;;;56.42;44.85;;;;;;;;;;5096045;28;20210;-85
2021/01/11 08:26:11;;;;;;;36.53;33.00;;;;;;;;;;5096056;28;20219;-87
2021/01/11 08:28:41;;;;;;;45.22;40.22;;;;;;;;;;5095736;28;20240;-83
2021/01/11 08:31:08;;;;;;;184.57;91.28;;;;;;;;;;5096203;28;20214;-84
2021/01/11 08:33:36;;;;;;;42.63;38.22;;;;;;;;;;5094965;28;20205;-80
2021/01/11 08:36:16;;;;;;;37.78;34.00;;;;;;;;;;5094499;28;20194;-78
2021/01/11 08:39:04;;;;;;;63.65;42.92;;;;;;;;;;5088681;28;20186;-80
2021/01/11 08:41:32;;;;;;;44.47;39.83;;;;;;;;;;5085114;28;20222;-81
2021/01/11 08:43:59;;;;;;;42.95;38.08;;;;;;;;;;5080518;28;20194;-89
2021/01/11 08:46:46;;;;;;;40.95;36.85;;;;;;;;;;5081062;28;20234;-86
2021/01/11 08:49:13;;;;;;;45.00;40.33;;;;;;;;;;5086559;28;20199;-86
2021/01/11 08:51:40;;;;;;;36.53;33.25;;;;;;;;;;5080681;28;20191;-86
2021/01/11 08:54:08;;;;;;;42.28;37.83;;;;;;;;;;5078017;28;20194;-86
2021/01/11 08:56:36;;;;;;;37.10;33.47;;;;;;;;;;5075170;28;20207;-87
2021/01/11 08:59:03;;;;;;;38.63;35.10;;;;;;;;;;5075603;28;20188;-86
2021/01/11 09:01:35;;;;;;;43.05;38.55;;;;;;;;;;5075482;28;20187;-87
2021/01/11 09:04:03;;;;;;;42.67;38.33;;;;;;;;;;5075732;28;20183;-86
2021/01/11 09:06:36;;;;;;;38.58;34.95;;;;;;;;;;5075113;28;20220;-86
2021/01/11 09:09:05;;;;;;;37.80;34.50;;;;;;;;;;5075500;28;20633;-86
2021/01/11 09:11:32;;;;;;;38.42;34.63;;;;;;;;;;5076972;28;20599;-86
2021/01/11 09:14:09;;;;;;;35.65;31.77;;;;;;;;;;5076713;28;20192;-87
2021/01/11 09:16:38;;;;;;;38.90;34.58;;;;;;;;;;5077558;28;20204;-86
2021/01/11 09:19:06;;;;;;;37.75;34.10;;;;;;;;;;5076842;28;20191;-86
2021/01/11 09:21:33;;;;;;;40.78;36.53;;;;;;;;;;5076225;28;20188;-87
2021/01/11 09:24:00;;;;;;;41.22;37.00;;;;;;;;;;5057966;28;20199;-85
2021/01/11 09:26:27;;;;;;;41.00;37.00;;;;;;;;;;5075608;28;20215;-87
2021/01/11 09:28:55;;;;;;;36.05;32.67;;;;;;;;;;5074836;28;20200;-87
2021/01/11 09:31:22;;;;;;;38.97;35.03;;;;;;;;;;5074676;28;20238;-87
2021/01/11 09:33:49;;;;;;;36.50;32.70;;;;;;;;;;5074521;28;20199;-87
2021/01/11 09:36:16;;;;;;;42.13;37.72;;;;;;;;;;5074556;28;20211;-87
2021/01/11 09:38:43;;;;;;;41.17;37.00;;;;;;;;;;5074963;28;20269;-86
2021/01/11 09:41:12;;;;;;;40.03;36.10;;;;;;;;;;5074128;28;20228;-84
2021/01/11 09:43:38;;;;;;;35.88;32.25;;;;;;;;;;5074595;28;20192;-84
2021/01/11 09:46:07;;;;;;;36.35;32.90;;;;;;;;;;5074369;28;20269;-85
2021/01/11 09:48:34;;;;;;;38.05;34.35;;;;;;;;;;5074441;28;20238;-84
2021/01/11 09:51:01;;;;;;;40.00;36.33;;;;;;;;;;5074561;28;20532;-87
2021/01/11 09:53:28;;;;;;;35.85;32.58;;;;;;;;;;5074322;28;20194;-87
2021/01/11 09:55:55;;;;;;;40.42;36.60;;;;;;;;;;5074786;28;20260;-86
2021/01/11 09:58:22;;;;;;;33.03;30.02;;;;;;;;;;5074552;28;20203;-86
2021/01/11 10:00:49;;;;;;;37.40;33.75;;;;;;;;;;5074260;28;20190;-86
2021/01/11 10:03:17;;;;;;;40.47;36.60;;;;;;;;;;5074120;28;20211;-86
2021/01/11 10:05:44;;;;;;;33.80;30.10;;;;;;;;;;5056737;28;20219;-87
2021/01/11 10:08:13;;;;;;;40.83;33.05;;;;;;;;;;5074451;28;20622;-86
2021/01/11 10:10:40;;;;;;;39.30;35.42;;;;;;;;;;5074456;28;20204;-86
2021/01/11 10:13:07;;;;;;;38.33;34.75;;;;;;;;;;5073896;28;20730;-86
2021/01/11 10:15:34;;;;;;;42.08;37.63;;;;;;;;;;5073946;28;20201;-86
2021/01/11 10:18:01;;;;;;;31.10;28.38;;;;;;;;;;5074148;28;20230;-86
2021/01/11 10:20:29;;;;;;;40.72;36.70;;;;;;;;;;5074115;28;20245;-86
2021/01/11 10:22:56;;;;;;;39.42;35.53;;;;;;;;;;5056514;28;20211;-85
2021/01/11 10:25:23;;;;;;;40.03;36.17;;;;;;;;;;5056324;28;20227;-86
2021/01/11 10:27:52;;;;;;;38.72;35.03;;;;;;;;;;5074139;28;20270;-84
2021/01/11 10:30:20;;;;;;;39.38;35.35;;;;;;;;;;5073580;28;20255;-83
2021/01/11 10:32:47;;;;;;;33.72;30.63;;;;;;;;;;5056285;28;20187;-84
2021/01/11 10:35:14;;;;;;;32.35;29.15;;;;;;;;;;5074043;28;20191;-84
2021/01/11 10:37:42;;;;;;;32.90;29.90;;;;;;;;;;5074239;28;20192;-86
2021/01/11 10:40:10;;;;;;;33.42;30.23;;;;;;;;;;5072636;28;20228;-86
2021/01/11 10:42:37;;;;;;;32.03;29.15;;;;;;;;;;5074329;28;20222;-86
2021/01/11 10:45:04;;;;;;;29.15;26.95;;;;;;;;;;5074128;28;20734;-86
2021/01/11 10:47:35;;;;;;;35.03;31.77;;;;;;;;;;5074699;28;20195;-86
2021/01/11 10:50:02;;;;;;;37.63;34.00;;;;;;;;;;5074555;28;20204;-86
2021/01/11 10:52:30;;;;;;;34.78;31.45;;;;;;;;;;5074134;28;20207;-87
2021/01/11 10:54:58;;;;;;;35.78;32.58;;;;;;;;;;5074448;28;20195;-87
2021/01/11 10:57:25;;;;;;;39.85;35.85;;;;;;;;;;5073809;28;20188;-87
2021/01/11 10:59:52;;;;;;;36.20;32.70;;;;;;;;;;5060114;28;20201;-86
2021/01/11 11:02:19;;;;;;;33.28;30.38;;;;;;;;;;5078014;28;20664;-88
2021/01/11 11:04:47;;;;;;;37.70;34.05;;;;;;;;;;5075432;28;20196;-83
2021/01/11 11:07:14;;;;;;;31.95;28.95;;;;;;;;;;5075330;28;20196;-83
2021/01/11 11:09:41;;;;;;;31.38;28.65;;;;;;;;;;5059256;28;20206;-83
2021/01/11 11:14:45;;;;;;;30.38;28.00;;;;;;;;;;5308911;22;20237;-91
2021/01/11 11:17:14;;;;;;;37.03;33.33;;;;;;;;;;5037331;28;20193;-86
2021/01/11 11:19:41;;;;;;;36.95;33.17;;;;;;;;;;5036894;28;20193;-85
2021/01/11 11:22:08;;;;;;;36.35;32.95;;;;;;;;;;5036841;28;20192;-86
2021/01/11 11:24:35;;;;;;;32.65;29.30;;;;;;;;;;5037076;28;20219;-86
2021/01/11 11:27:02;;;;;;;35.17;32.10;;;;;;;;;;5019833;28;20200;-86
2021/01/11 11:29:29;;;;;;;34.85;31.20;;;;;;;;;;5036731;28;20197;-85
2021/01/11 11:31:56;;;;;;;30.30;27.77;;;;;;;;;;5036776;28;20198;-82
2021/01/11 11:34:23;;;;;;;34.17;31.00;;;;;;;;;;5019054;28;20194;-82
2021/01/11 11:36:50;;;;;;;30.77;27.98;;;;;;;;;;5036099;28;20642;-82
2021/01/11 11:39:17;;;;;;;31.13;28.52;;;;;;;;;;5035942;28;20185;-82
2021/01/11 11:41:44;;;;;;;35.45;32.25;;;;;;;;;;5036109;28;20661;-82
2021/01/11 11:44:11;;;;;;;37.10;33.72;;;;;;;;;;5035995;28;20213;-81
2021/01/11 11:46:38;;;;;;;34.67;31.55;;;;;;;;;;5035639;28;20213;-81
2021/01/11 11:49:05;;;;;;;30.70;27.95;;;;;;;;;;5035167;28;20227;-82
2021/01/11 11:51:32;;;;;;;33.40;30.15;;;;;;;;;;5035866;28;20553;-81
2021/01/11 11:53:59;;;;;;;29.33;26.77;;;;;;;;;;5035766;28;20192;-82
2021/01/11 11:56:26;;;;;;;32.67;29.83;;;;;;;;;;5036187;28;20541;-82
2021/01/11 11:58:53;;;;;;;34.80;31.80;;;;;;;;;;5035693;28;20197;-82
2021/01/11 12:01:20;;;;;;;38.60;34.92;;;;;;;;;;5036047;28;20192;-82
2021/01/11 12:03:47;;;;;;;31.58;29.00;;;;;;;;;;5035883;28;20185;-81
2021/01/11 12:06:14;;;;;;;29.65;27.30;;;;;;;;;;5035829;28;20216;-82
2021/01/11 12:08:41;;;;;;;29.30;26.80;;;;;;;;;;5035788;28;20205;-82
2021/01/11 12:11:08;;;;;;;30.90;28.27;;;;;;;;;;5034387;28;20544;-83
2021/01/11 12:13:36;;;;;;;32.67;29.75;;;;;;;;;;5036086;28;20221;-82
2021/01/11 12:16:03;;;;;;;33.10;30.20;;;;;;;;;;5055308;28;20192;-82
2021/01/11 12:18:29;;;;;;;31.80;29.08;;;;;;;;;;5055354;28;20188;-82
2021/01/11 12:20:56;;;;;;;34.03;30.98;;;;;;;;;;5055357;28;20185;-82
2021/01/11 12:23:24;;;;;;;28.30;25.88;;;;;;;;;;5055051;28;20192;-82
2021/01/11 12:25:51;;;;;;;32.70;29.90;;;;;;;;;;5055318;28;20223;-82
2021/01/11 12:28:18;;;;;;;27.40;25.38;;;;;;;;;;5055074;28;20189;-82
2021/01/11 12:30:45;;;;;;;28.83;26.48;;;;;;;;;;5055028;28;20188;-82
2021/01/11 12:33:12;;;;;;;32.85;30.05;;;;;;;;;;5055274;28;20196;-82
2021/01/11 12:35:40;;;;;;;31.35;28.75;;;;;;;;;;5055109;28;20188;-80
2021/01/11 12:38:07;;;;;;;30.98;27.98;;;;;;;;;;5054713;28;20645;-80
2021/01/11 12:40:34;;;;;;;31.48;29.05;;;;;;;;;;5055105;28;20573;-81
2021/01/11 12:43:01;;;;;;;33.83;30.73;;;;;;;;;;5054826;28;20195;-80
2021/01/11 12:45:28;;;;;;;31.85;29.25;;;;;;;;;;5055096;28;20216;-81
2021/01/11 12:47:55;;;;;;;31.85;29.15;;;;;;;;;;5055230;28;20188;-83
2021/01/11 12:50:22;;;;;;;31.55;28.92;;;;;;;;;;5055287;28;20193;-84
2021/01/11 12:52:49;;;;;;;28.90;26.67;;;;;;;;;;5054959;28;20194;-74
2021/01/11 12:55:16;;;;;;;31.23;28.63;;;;;;;;;;5054799;28;20283;-77
2021/01/11 12:57:43;;;;;;;32.78;29.77;;;;;;;;;;5054506;28;20216;-77
2021/01/11 13:00:11;;;;;;;31.00;28.50;;;;;;;;;;5054770;28;20189;-79
2021/01/11 13:02:38;;;;;;;30.95;28.00;;;;;;;;;;5054328;28;20267;-77
2021/01/11 13:05:05;;;;;;;31.45;28.75;;;;;;;;;;5054143;28;20614;-76
2021/01/11 13:07:32;;;;;;;32.38;29.52;;;;;;;;;;5054275;28;20192;-73
2021/01/11 13:09:59;;;;;;;25.17;23.33;;;;;;;;;;5051195;28;20192;-73
2021/01/11 13:12:25;;;;;;;30.08;27.42;;;;;;;;;;5051646;28;20192;-73
2021/01/11 13:14:54;;;;;;;32.25;29.45;;;;;;;;;;5050804;28;20240;-73
2021/01/11 13:17:20;;;;;;;30.02;27.63;;;;;;;;;;5051538;28;20235;-73
2021/01/11 13:19:47;;;;;;;26.02;24.13;;;;;;;;;;5051729;28;20185;-73
2021/01/11 13:22:14;;;;;;;28.33;25.95;;;;;;;;;;5052842;28;20671;-73
2021/01/11 13:24:41;;;;;;;32.17;29.38;;;;;;;;;;5053489;28;20204;-75
2021/01/11 13:27:08;;;;;;;28.35;26.20;;;;;;;;;;5053385;28;20216;-73
2021/01/11 13:29:35;;;;;;;28.55;25.60;;;;;;;;;;5052363;28;20188;-72
2021/01/11 13:32:02;;;;;;;32.20;29.42;;;;;;;;;;5050068;28;20192;-73
2021/01/11 13:34:29;;;;;;;33.42;30.33;;;;;;;;;;5053235;28;20196;-73
2021/01/11 13:36:57;;;;;;;31.45;28.55;;;;;;;;;;5053386;28;20196;-73
2021/01/11 13:39:24;;;;;;;26.50;24.60;;;;;;;;;;5053908;28;20250;-73
2021/01/11 13:41:50;;;;;;;32.00;29.23;;;;;;;;;;5053795;28;20189;-74
2021/01/11 13:44:17;;;;;;;31.48;28.88;;;;;;;;;;5053201;28;20205;-73
2021/01/11 13:46:45;;;;;;;29.15;26.63;;;;;;;;;;5053082;28;20701;-74
2021/01/11 13:49:15;;;;;;;26.25;24.35;;;;;;;;;;5053926;28;20188;-73
2021/01/11 13:51:42;;;;;;;30.85;28.17;;;;;;;;;;5053765;28;20204;-79
2021/01/11 13:54:09;;;;;;;31.25;28.52;;;;;;;;;;5053165;28;20192;-78
2021/01/11 13:56:38;;;;;;;31.63;29.15;;;;;;;;;;5053472;28;20246;-77
2021/01/11 13:59:06;;;;;;;32.22;29.38;;;;;;;;;;5053866;28;20204;-79
2021/01/11 14:01:38;;;;;;;32.85;30.15;;;;;;;;;;5053724;28;20341;-79
2021/01/11 14:04:05;;;;;;;41.97;35.50;;;;;;;;;;5053684;28;20195;-83
2021/01/11 14:06:34;;;;;;;33.05;30.33;;;;;;;;;;5053974;28;20788;-81
2021/01/11 14:09:00;;;;;;;34.42;31.33;;;;;;;;;;5053747;28;20199;-74
2021/01/11 14:11:28;;;;;;;32.25;29.60;;;;;;;;;;5053638;28;20196;-74
2021/01/11 14:13:56;;;;;;;33.70;30.83;;;;;;;;;;5053127;28;20236;-73
2021/01/11 14:16:26;;;;;;;31.25;28.67;;;;;;;;;;5035651;28;20280;-74
2021/01/11 14:18:54;;;;;;;29.13;26.63;;;;;;;;;;5053570;28;20192;-74
2021/01/11 14:21:21;;;;;;;29.63;27.23;;;;;;;;;;5035690;28;20646;-74
2021/01/11 14:23:49;;;;;;;33.33;30.63;;;;;;;;;;5053516;28;20272;-73
2021/01/11 14:26:17;;;;;;;35.67;32.80;;;;;;;;;;5053088;28;20231;-73